Time;durP1;ratioP1;P1;durP2;ratioP2;P2;SDS_P1;SDS_P2;PMS_P1;PMS_P2;Temp;Humidity;BMP_temperature;BMP_pressure;BME280_temperature;BME280_humidity;BME280_pressure;Samples;Min_cycle;Max_cycle;Signal;HPM_P1;HPM_P2
2022/03/08 00:01:30;;;;;;;15.90;14.13;;;0.30;99.90;;;;;;4999532;28;20463;-78
2022/03/08 00:03:58;;;;;;;14.93;13.37;;;0.40;99.90;;;;;;5008390;28;20447;-77
2022/03/08 00:06:26;;;;;;;15.70;13.37;;;0.40;99.90;;;;;;4989883;28;20871;-78
2022/03/08 00:08:53;;;;;;;14.87;12.70;;;0.40;99.90;;;;;;4991303;28;20472;-78
2022/03/08 00:11:20;;;;;;;14.77;13.13;;;0.40;99.90;;;;;;5011630;28;20526;-77
2022/03/08 00:13:50;;;;;;;14.53;12.97;;;0.30;99.90;;;;;;5009426;28;20446;-78
2022/03/08 00:16:17;;;;;;;19.23;13.83;;;0.20;99.90;;;;;;4989597;28;20536;-78
2022/03/08 00:18:44;;;;;;;16.30;13.63;;;0.10;99.90;;;;;;4992541;28;20834;-77
2022/03/08 00:21:12;;;;;;;14.43;12.97;;;0.20;99.90;;;;;;4994457;28;21026;-78
2022/03/08 00:23:39;;;;;;;13.67;12.20;;;0.20;99.90;;;;;;4991804;28;20448;-77
2022/03/08 00:26:06;;;;;;;13.63;12.23;;;0.20;99.90;;;;;;5008386;28;20423;-78
2022/03/08 00:28:35;;;;;;;14.53;13.03;;;0.10;99.90;;;;;;5006721;28;20513;-77
2022/03/08 00:31:06;;;;;;;13.47;11.93;;;0.10;99.90;;;;;;4989489;28;20448;-77
2022/03/08 00:33:33;;;;;;;15.33;12.60;;;0.00;99.90;;;;;;4992736;28;20465;-77
2022/03/08 00:36:00;;;;;;;14.70;13.20;;;-0.10;99.90;;;;;;4993814;28;20456;-77
2022/03/08 00:38:28;;;;;;;16.47;14.00;;;-0.20;99.90;;;;;;4989496;28;20472;-77
2022/03/08 00:40:55;;;;;;;14.30;12.80;;;-0.20;99.90;;;;;;4991600;28;20444;-78
2022/03/08 00:43:22;;;;;;;14.23;12.53;;;-0.20;99.90;;;;;;5008816;28;20444;-78
2022/03/08 00:45:49;;;;;;;14.73;13.13;;;-0.30;99.90;;;;;;5009090;28;20443;-77
2022/03/08 00:48:16;;;;;;;16.50;13.63;;;-0.30;99.90;;;;;;4990942;28;20857;-76
2022/03/08 00:50:43;;;;;;;14.50;13.00;;;-0.30;99.90;;;;;;5011999;28;20448;-78
2022/03/08 00:53:13;;;;;;;15.23;13.77;;;-0.40;99.90;;;;;;4995711;28;20455;-78
2022/03/08 00:55:41;;;;;;;14.57;13.13;;;-0.40;99.90;;;;;;4992873;28;20440;-77
2022/03/08 00:58:08;;;;;;;14.30;12.70;;;-0.30;99.90;;;;;;4989795;28;20482;-77
2022/03/08 01:00:38;;;;;;;14.10;12.60;;;-0.30;99.90;;;;;;4990440;28;20447;-78
2022/03/08 01:03:05;;;;;;;16.23;12.70;;;-0.30;99.90;;;;;;4991813;28;20460;-78
2022/03/08 01:05:33;;;;;;;15.77;13.03;;;-0.40;99.90;;;;;;4995323;28;20445;-78
2022/03/08 01:08:01;;;;;;;13.90;12.37;;;-0.40;99.90;;;;;;4985531;28;20857;-79
2022/03/08 01:10:29;;;;;;;15.70;13.43;;;-0.50;99.90;;;;;;4986624;28;20456;-77
2022/03/08 01:12:59;;;;;;;14.87;12.77;;;-0.60;99.90;;;;;;5011330;28;20522;-78
2022/03/08 01:15:26;;;;;;;14.63;13.07;;;-0.60;99.90;;;;;;4989316;28;20447;-78
2022/03/08 01:17:55;;;;;;;14.93;13.43;;;-0.70;99.90;;;;;;5004804;28;20459;-78
2022/03/08 01:20:22;;;;;;;14.10;12.70;;;-0.70;99.90;;;;;;4994830;28;20958;-78
2022/03/08 01:22:49;;;;;;;14.57;12.70;;;-0.70;99.90;;;;;;4990881;28;20464;-78
2022/03/08 01:25:20;;;;;;;14.87;12.33;;;-0.80;99.90;;;;;;4994039;28;20443;-78
2022/03/08 01:27:47;;;;;;;16.00;13.30;;;-0.80;99.90;;;;;;4985586;28;20503;-77
2022/03/08 01:30:17;;;;;;;15.60;13.97;;;-0.80;99.90;;;;;;4996016;28;21078;-78
2022/03/08 01:32:44;;;;;;;17.20;14.17;;;-0.90;99.90;;;;;;4997330;28;20785;-78
2022/03/08 01:35:15;;;;;;;14.43;12.93;;;-1.00;99.90;;;;;;5006826;28;20820;-78
2022/03/08 01:37:43;;;;;;;14.43;13.03;;;-1.00;99.90;;;;;;5014854;28;20451;-78
2022/03/08 01:40:15;;;;;;;14.93;13.13;;;-1.00;99.90;;;;;;4990021;28;20448;-78
2022/03/08 01:42:42;;;;;;;15.07;13.37;;;-1.10;99.90;;;;;;4992100;28;20452;-78
2022/03/08 01:45:10;;;;;;;17.60;14.10;;;-1.10;99.90;;;;;;4994520;28;20460;-78
2022/03/08 01:47:38;;;;;;;18.07;13.37;;;-1.20;99.90;;;;;;5007400;28;20452;-77
2022/03/08 01:50:06;;;;;;;17.07;13.87;;;-1.20;99.90;;;;;;4989170;28;20602;-77
2022/03/08 01:52:34;;;;;;;15.07;13.10;;;-1.20;99.90;;;;;;4990616;28;20456;-77
2022/03/08 01:55:01;;;;;;;16.53;13.07;;;-1.20;99.90;;;;;;5011501;28;20443;-78
2022/03/08 01:57:28;;;;;;;17.20;13.70;;;-1.30;99.90;;;;;;4990240;28;20482;-77
2022/03/08 01:59:55;;;;;;;15.27;13.67;;;-1.30;99.90;;;;;;5015018;28;20428;-77
2022/03/08 02:02:23;;;;;;;14.30;12.80;;;-1.40;99.90;;;;;;5007081;28;20447;-78
2022/03/08 02:04:52;;;;;;;15.67;13.97;;;-1.40;99.90;;;;;;4989773;28;20475;-77
2022/03/08 02:07:19;;;;;;;16.20;14.50;;;-1.40;99.90;;;;;;4990055;28;20463;-77
2022/03/08 02:09:46;;;;;;;14.77;13.27;;;-1.40;99.90;;;;;;5010826;28;20977;-78
2022/03/08 02:12:12;;;;;;;14.73;13.23;;;-1.40;99.90;;;;;;4999584;28;20452;-77
2022/03/08 02:14:41;;;;;;;14.53;13.13;;;-1.40;99.90;;;;;;5014441;28;20444;-78
2022/03/08 02:17:08;;;;;;;15.97;14.27;;;-1.40;99.90;;;;;;4994001;28;20440;-78
2022/03/08 02:19:35;;;;;;;14.30;12.87;;;-1.50;99.90;;;;;;5027808;23;20503;-76
2022/03/08 02:22:03;;;;;;;17.37;13.90;;;-1.50;99.90;;;;;;5003314;28;20903;-77
2022/03/08 02:24:30;;;;;;;18.30;14.00;;;-1.60;99.90;;;;;;5008768;28;20991;-76
2022/03/08 02:26:58;;;;;;;14.43;12.93;;;-1.50;99.90;;;;;;4993008;28;20452;-76
2022/03/08 02:29:25;;;;;;;15.67;14.07;;;-1.50;99.90;;;;;;5011482;28;20522;-76
2022/03/08 02:31:52;;;;;;;15.47;13.87;;;-1.50;99.90;;;;;;4987122;28;20449;-76
2022/03/08 02:34:19;;;;;;;14.83;13.23;;;-1.60;99.90;;;;;;5005392;28;20503;-76
2022/03/08 02:37:07;;;;;;;14.63;13.13;;;-1.60;99.90;;;;;;5010801;28;20847;-76
2022/03/08 02:39:34;;;;;;;14.63;12.73;;;-1.60;99.90;;;;;;5000059;28;20519;-76
2022/03/08 02:42:01;;;;;;;14.77;13.27;;;-1.60;99.90;;;;;;5000002;28;20448;-76
2022/03/08 02:44:29;;;;;;;13.67;12.27;;;-1.60;99.90;;;;;;4986276;28;20507;-76
2022/03/08 02:46:56;;;;;;;15.60;13.90;;;-1.60;99.90;;;;;;5003946;28;20440;-76
2022/03/08 02:49:23;;;;;;;15.80;12.97;;;-1.60;99.90;;;;;;5015818;28;20463;-76
2022/03/08 02:51:50;;;;;;;15.20;13.07;;;-1.60;99.90;;;;;;4998244;28;20450;-76
2022/03/08 02:54:18;;;;;;;14.07;12.40;;;-1.70;99.90;;;;;;5015457;28;20427;-76
2022/03/08 02:56:45;;;;;;;14.60;13.03;;;-1.70;99.90;;;;;;5006026;28;20466;-75
2022/03/08 02:59:12;;;;;;;15.07;12.83;;;-1.70;99.90;;;;;;5007017;28;20539;-75
2022/03/08 03:01:38;;;;;;;15.03;13.43;;;-1.70;99.90;;;;;;5010407;28;21003;-76
2022/03/08 03:04:05;;;;;;;14.40;13.00;;;-1.70;99.90;;;;;;5011616;28;20447;-76
2022/03/08 03:06:35;;;;;;;14.60;13.03;;;-1.60;99.90;;;;;;4989708;28;20439;-76
2022/03/08 03:09:02;;;;;;;15.47;13.60;;;-1.60;99.90;;;;;;5007230;28;20458;-76
2022/03/08 03:11:31;;;;;;;15.63;14.03;;;-1.60;99.90;;;;;;4987753;28;20870;-76
2022/03/08 03:13:57;;;;;;;14.43;13.03;;;-1.60;99.90;;;;;;5007450;28;20444;-76
2022/03/08 03:16:24;;;;;;;14.30;12.80;;;-1.60;99.90;;;;;;5003299;28;20504;-76
2022/03/08 03:18:51;;;;;;;14.13;12.53;;;-1.60;99.90;;;;;;5003253;28;20890;-76
2022/03/08 03:21:18;;;;;;;15.07;13.47;;;-1.70;99.90;;;;;;5005611;28;20880;-76
2022/03/08 03:23:45;;;;;;;13.77;12.33;;;-1.70;99.90;;;;;;5003089;28;20468;-76
2022/03/08 03:26:12;;;;;;;16.57;14.37;;;-1.60;99.90;;;;;;4987055;28;20499;-76
2022/03/08 03:28:40;;;;;;;14.40;12.97;;;-1.70;99.90;;;;;;5002473;28;21045;-76
2022/03/08 03:31:07;;;;;;;16.63;13.27;;;-1.70;99.90;;;;;;5010694;28;20494;-76
2022/03/08 03:33:33;;;;;;;15.20;13.50;;;-1.70;99.90;;;;;;4988880;28;20455;-76
2022/03/08 03:36:00;;;;;;;14.77;12.83;;;-1.70;99.90;;;;;;4993342;28;20510;-76
2022/03/08 03:38:27;;;;;;;17.40;13.77;;;-1.80;99.90;;;;;;4980637;28;21004;-76
2022/03/08 03:40:54;;;;;;;14.43;13.03;;;-1.70;99.90;;;;;;4989710;28;20836;-76
2022/03/08 03:43:21;;;;;;;14.47;12.97;;;-1.70;99.90;;;;;;5011224;28;20814;-77
2022/03/08 03:45:49;;;;;;;14.63;12.93;;;-1.70;99.90;;;;;;5000985;28;20448;-77
2022/03/08 03:48:16;;;;;;;15.20;13.60;;;-1.70;99.90;;;;;;5004603;28;20475;-76
2022/03/08 03:50:43;;;;;;;17.47;13.60;;;-1.70;99.90;;;;;;5006929;28;20466;-77
2022/03/08 03:53:10;;;;;;;14.40;12.93;;;-1.80;99.90;;;;;;5007497;28;20459;-77
2022/03/08 03:55:37;;;;;;;14.73;13.07;;;-1.80;99.90;;;;;;5017184;28;20529;-77
2022/03/08 03:58:04;;;;;;;17.77;14.23;;;-1.90;99.90;;;;;;5018604;28;20848;-77
2022/03/08 04:00:31;;;;;;;14.80;13.20;;;-1.90;99.90;;;;;;5013435;28;20470;-76
2022/03/08 04:02:59;;;;;;;14.70;13.20;;;-2.00;99.90;;;;;;5009356;28;20506;-76
2022/03/08 04:05:26;;;;;;;14.67;13.00;;;-2.00;99.90;;;;;;5031724;28;20431;-76
2022/03/08 04:07:53;;;;;;;14.60;13.10;;;-1.90;99.90;;;;;;4987966;28;20826;-76
2022/03/08 04:10:20;;;;;;;16.70;13.80;;;-1.90;99.90;;;;;;4988000;28;20820;-75
2022/03/08 04:12:47;;;;;;;15.37;13.03;;;-2.00;99.90;;;;;;5008138;28;20468;-76
2022/03/08 04:15:14;;;;;;;14.77;13.27;;;-1.90;99.90;;;;;;5012557;28;20436;-76
2022/03/08 04:17:40;;;;;;;14.53;13.03;;;-2.00;99.90;;;;;;5019144;28;20609;-77
2022/03/08 04:20:10;;;;;;;15.00;13.43;;;-2.10;99.90;;;;;;5008671;28;20467;-77
2022/03/08 04:22:38;;;;;;;15.50;13.83;;;-2.10;99.90;;;;;;4989357;28;20953;-77
2022/03/08 04:25:06;;;;;;;16.73;14.07;;;-2.10;99.90;;;;;;5003622;28;20447;-77
2022/03/08 04:27:33;;;;;;;16.77;14.23;;;-2.20;99.90;;;;;;4993242;28;20531;-77
2022/03/08 04:30:00;;;;;;;14.73;13.13;;;-2.20;99.90;;;;;;4995589;28;20474;-77
2022/03/08 04:32:27;;;;;;;17.47;13.60;;;-2.20;99.90;;;;;;5013487;28;20432;-76
2022/03/08 04:34:54;;;;;;;14.53;13.13;;;-2.20;99.90;;;;;;5006636;28;20961;-77
2022/03/08 04:37:22;;;;;;;15.80;13.77;;;-2.30;99.90;;;;;;5003766;28;20456;-77
2022/03/08 04:39:49;;;;;;;15.03;13.27;;;-2.30;99.90;;;;;;4990914;28;20486;-76
2022/03/08 04:42:16;;;;;;;14.33;12.93;;;-2.20;99.90;;;;;;4994124;28;20455;-77
2022/03/08 04:44:43;;;;;;;16.03;13.87;;;-2.30;99.90;;;;;;5008841;28;20496;-76
2022/03/08 04:47:10;;;;;;;16.30;13.40;;;-2.40;99.90;;;;;;5010540;28;20444;-77
2022/03/08 04:49:37;;;;;;;14.93;13.03;;;-2.40;99.90;;;;;;5011593;28;21035;-76
2022/03/08 04:52:05;;;;;;;15.70;13.00;;;-2.40;99.90;;;;;;5012374;28;20932;-76
2022/03/08 04:54:33;;;;;;;17.93;13.00;;;-2.30;99.90;;;;;;5013160;28;20432;-76
2022/03/08 04:57:00;;;;;;;14.57;13.03;;;-2.30;99.90;;;;;;5004610;28;20455;-75
2022/03/08 04:59:27;;;;;;;13.17;11.90;;;-2.30;99.90;;;;;;4986942;28;20475;-75
2022/03/08 05:01:53;;;;;;;13.77;12.40;;;-2.20;99.90;;;;;;4999144;28;20498;-76
2022/03/08 05:04:21;;;;;;;13.40;12.10;;;-2.20;99.90;;;;;;5004428;28;20439;-76
2022/03/08 05:06:48;;;;;;;13.83;12.43;;;-2.20;99.90;;;;;;5004687;28;20431;-77
2022/03/08 05:09:15;;;;;;;13.93;12.47;;;-2.20;99.90;;;;;;4984905;28;20472;-77
2022/03/08 05:11:43;;;;;;;14.57;12.37;;;-2.20;99.90;;;;;;5000068;28;20439;-76
2022/03/08 05:14:10;;;;;;;13.60;12.20;;;-2.20;99.90;;;;;;4986639;28;20461;-75
2022/03/08 05:16:36;;;;;;;13.43;12.07;;;-2.30;99.90;;;;;;5007517;28;20457;-76
2022/03/08 05:19:03;;;;;;;14.93;13.10;;;-2.30;99.90;;;;;;5004209;28;21093;-76
2022/03/08 05:21:30;;;;;;;13.60;12.20;;;-2.30;99.90;;;;;;4989314;28;20631;-76
2022/03/08 05:23:57;;;;;;;14.33;12.87;;;-2.30;99.90;;;;;;4997825;28;20488;-76
2022/03/08 05:26:24;;;;;;;13.77;12.27;;;-2.20;99.90;;;;;;5002886;28;20447;-76
2022/03/08 05:28:52;;;;;;;14.17;12.50;;;-2.20;99.90;;;;;;4995136;28;20507;-76
2022/03/08 05:31:19;;;;;;;13.07;11.70;;;-2.20;99.90;;;;;;5000653;28;20452;-78
2022/03/08 05:33:45;;;;;;;14.53;12.97;;;-2.20;99.90;;;;;;5012440;28;20443;-75
2022/03/08 05:36:12;;;;;;;13.90;12.50;;;-2.20;99.90;;;;;;5003068;28;20443;-75
2022/03/08 05:38:39;;;;;;;13.20;11.83;;;-2.20;99.90;;;;;;4987691;28;20909;-76
2022/03/08 05:41:06;;;;;;;12.73;11.43;;;-2.20;99.90;;;;;;5012327;28;20471;-76
2022/03/08 05:43:33;;;;;;;13.53;12.13;;;-2.10;99.90;;;;;;4989886;28;20459;-76
2022/03/08 05:46:01;;;;;;;13.07;11.87;;;-2.10;99.90;;;;;;4989218;28;20470;-75
2022/03/08 05:48:28;;;;;;;12.53;11.23;;;-2.00;99.90;;;;;;4999851;28;20864;-76
2022/03/08 05:50:54;;;;;;;12.47;11.17;;;-1.80;99.90;;;;;;5009444;28;20431;-76
2022/03/08 05:53:21;;;;;;;12.53;11.30;;;-1.80;99.90;;;;;;4986639;28;20436;-75
2022/03/08 05:55:48;;;;;;;13.43;11.43;;;-1.80;99.90;;;;;;5004156;28;20527;-76
2022/03/08 05:58:15;;;;;;;13.07;11.50;;;-1.90;99.90;;;;;;5010142;28;20459;-77
2022/03/08 06:00:42;;;;;;;13.33;11.93;;;-1.80;99.90;;;;;;4993851;28;20476;-75
2022/03/08 06:03:10;;;;;;;13.33;12.03;;;-1.90;99.90;;;;;;5011944;28;20443;-75
2022/03/08 06:05:37;;;;;;;13.07;11.77;;;-1.90;99.90;;;;;;5004000;28;20514;-75
2022/03/08 06:08:04;;;;;;;12.60;11.43;;;-1.80;99.90;;;;;;5002380;28;20460;-78
2022/03/08 06:10:31;;;;;;;14.07;12.50;;;-1.80;99.90;;;;;;5012016;28;20440;-75
2022/03/08 06:12:58;;;;;;;13.10;11.80;;;-1.70;99.90;;;;;;4994188;28;20452;-76
2022/03/08 06:15:25;;;;;;;12.70;11.50;;;-1.60;99.90;;;;;;5010867;28;20439;-76
2022/03/08 06:17:52;;;;;;;12.80;11.63;;;-1.50;99.90;;;;;;4995191;28;20466;-76
2022/03/08 06:20:20;;;;;;;13.30;11.63;;;-1.50;99.90;;;;;;5010968;28;20839;-77
2022/03/08 06:22:47;;;;;;;14.67;11.70;;;-1.50;99.90;;;;;;5003842;28;20975;-76
2022/03/08 06:25:14;;;;;;;12.93;11.63;;;-1.50;99.90;;;;;;4993990;28;20460;-76
2022/03/08 06:27:41;;;;;;;11.57;10.50;;;-1.40;99.90;;;;;;5009159;28;20443;-76
2022/03/08 06:30:09;;;;;;;13.10;11.77;;;-1.10;99.90;;;;;;5003405;28;20496;-76
2022/03/08 06:32:36;;;;;;;12.80;11.50;;;-0.80;99.90;;;;;;4985914;28;20443;-76
2022/03/08 06:35:03;;;;;;;13.37;11.97;;;-0.40;99.90;;;;;;4995048;28;20933;-76
2022/03/08 06:37:31;;;;;;;13.67;11.80;;;-0.10;99.90;;;;;;5002875;28;20455;-76
2022/03/08 06:39:58;;;;;;;11.97;10.77;;;0.30;99.90;;;;;;4994776;28;20844;-76
2022/03/08 06:42:25;;;;;;;11.90;10.80;;;0.70;99.90;;;;;;4985869;28;20516;-76
2022/03/08 06:44:52;;;;;;;12.33;11.20;;;1.10;99.90;;;;;;5004662;28;20456;-76
2022/03/08 06:47:19;;;;;;;12.10;10.90;;;1.60;99.90;;;;;;5001143;28;20469;-76
2022/03/08 06:49:46;;;;;;;12.30;11.10;;;1.90;99.90;;;;;;4993814;28;20536;-76
2022/03/08 06:52:13;;;;;;;12.57;11.30;;;2.00;99.90;;;;;;4994015;28;20548;-76
2022/03/08 06:54:41;;;;;;;12.90;11.67;;;2.20;99.90;;;;;;5010952;28;20525;-77
2022/03/08 06:57:08;;;;;;;11.80;10.80;;;2.40;99.90;;;;;;5002889;28;20765;-76
2022/03/08 06:59:35;;;;;;;12.40;11.27;;;2.50;99.90;;;;;;5010034;28;20479;-76
2022/03/08 07:02:03;;;;;;;13.30;11.03;;;2.60;99.90;;;;;;5003129;28;20486;-76
2022/03/08 07:04:29;;;;;;;11.90;10.90;;;2.70;99.90;;;;;;4981225;28;20814;-77
2022/03/08 07:06:56;;;;;;;12.63;11.53;;;2.90;99.90;;;;;;5003096;28;20790;-78
2022/03/08 07:09:24;;;;;;;13.17;12.00;;;3.10;99.90;;;;;;5007578;28;20467;-77
2022/03/08 07:11:53;;;;;;;12.27;11.17;;;3.20;99.90;;;;;;5006248;28;20431;-76
2022/03/08 07:14:20;;;;;;;13.40;12.10;;;3.40;99.90;;;;;;5003168;28;20227;-76
2022/03/08 07:16:48;;;;;;;12.90;11.67;;;3.70;99.90;;;;;;4984731;28;20251;-76
2022/03/08 07:19:15;;;;;;;13.07;11.87;;;4.00;99.90;;;;;;4985112;28;20480;-77
2022/03/08 07:21:42;;;;;;;13.63;12.43;;;4.10;99.90;;;;;;5005812;28;20213;-77
2022/03/08 07:24:10;;;;;;;13.17;11.93;;;4.30;99.90;;;;;;5007383;28;20220;-77
2022/03/08 07:26:37;;;;;;;11.90;10.77;;;4.60;99.90;;;;;;4981487;28;20209;-77
2022/03/08 07:29:05;;;;;;;12.37;11.17;;;4.80;99.90;;;;;;5007754;28;20279;-77
2022/03/08 07:31:33;;;;;;;11.67;10.57;;;5.00;99.90;;;;;;5003842;28;20181;-77
2022/03/08 07:34:00;;;;;;;11.70;10.70;;;5.20;99.90;;;;;;5006833;28;20201;-77
2022/03/08 07:36:28;;;;;;;10.43;8.80;;;5.40;99.90;;;;;;5005579;28;20571;-77
2022/03/08 07:38:55;;;;;;;10.07;7.47;;;5.50;99.90;;;;;;5007688;28;20710;-77
2022/03/08 07:41:22;;;;;;;9.63;7.17;;;5.50;99.60;;;;;;5010959;28;20254;-76
2022/03/08 07:43:49;;;;;;;9.03;6.90;;;5.60;99.50;;;;;;4993852;28;20674;-77
2022/03/08 07:46:17;;;;;;;10.83;9.83;;;5.70;99.80;;;;;;4988846;28;20200;-77
2022/03/08 07:48:44;;;;;;;12.13;11.03;;;6.10;99.70;;;;;;5006006;28;20268;-77
2022/03/08 07:51:11;;;;;;;10.37;9.47;;;6.10;99.60;;;;;;5006216;28;20190;-77
2022/03/08 07:53:38;;;;;;;9.33;8.00;;;6.60;98.90;;;;;;5014674;28;20211;-77
2022/03/08 07:56:05;;;;;;;8.77;7.50;;;6.90;98.10;;;;;;5013894;28;20250;-78
2022/03/08 07:58:34;;;;;;;10.13;9.03;;;7.20;97.70;;;;;;4991979;28;20221;-77
2022/03/08 08:01:01;;;;;;;9.83;8.90;;;7.30;97.00;;;;;;4985102;28;20621;-77
2022/03/08 08:03:29;;;;;;;9.97;6.87;;;7.60;96.80;;;;;;5014225;28;20199;-78
2022/03/08 08:05:55;;;;;;;10.30;8.07;;;7.80;96.60;;;;;;5006085;28;20203;-77
2022/03/08 08:08:22;;;;;;;11.73;10.60;;;7.90;96.20;;;;;;5005205;28;20254;-78
2022/03/08 08:10:49;;;;;;;11.87;10.87;;;8.20;95.80;;;;;;4988914;28;20192;-78
2022/03/08 08:13:16;;;;;;;12.03;11.03;;;8.50;95.10;;;;;;4988422;28;20208;-78
2022/03/08 08:15:43;;;;;;;10.67;9.77;;;8.50;94.80;;;;;;5008846;28;20223;-77
2022/03/08 08:18:09;;;;;;;10.80;10.00;;;8.80;94.90;;;;;;5034704;23;20286;-76
2022/03/08 08:20:38;;;;;;;9.80;8.80;;;9.00;94.00;;;;;;4993473;28;20712;-77
2022/03/08 08:23:04;;;;;;;9.70;8.70;;;9.10;93.40;;;;;;5013273;28;20196;-77
2022/03/08 08:25:31;;;;;;;9.60;8.67;;;9.10;93.70;;;;;;5010161;28;20288;-77
2022/03/08 08:27:58;;;;;;;10.40;9.00;;;8.80;92.50;;;;;;5009675;28;20743;-77
2022/03/08 08:30:26;;;;;;;11.27;10.27;;;8.40;93.80;;;;;;5024422;28;20216;-76
2022/03/08 08:32:53;;;;;;;10.77;9.70;;;8.40;92.80;;;;;;5024998;28;20649;-76
2022/03/08 08:35:20;;;;;;;12.33;11.33;;;8.40;93.40;;;;;;5010200;28;20200;-77
2022/03/08 08:37:48;;;;;;;11.37;10.47;;;8.60;93.50;;;;;;5026415;28;20188;-76
2022/03/08 08:40:15;;;;;;;11.93;10.93;;;8.50;93.10;;;;;;5026339;28;20222;-78
2022/03/08 08:42:42;;;;;;;11.70;10.50;;;8.70;92.80;;;;;;5027819;28;20219;-78
2022/03/08 08:45:10;;;;;;;12.10;10.90;;;8.60;92.80;;;;;;5007087;28;20622;-77
2022/03/08 08:47:36;;;;;;;10.80;9.80;;;8.30;92.30;;;;;;5029771;28;20204;-76
2022/03/08 08:50:04;;;;;;;10.57;9.67;;;8.00;92.00;;;;;;5032079;28;20219;-78
2022/03/08 08:52:31;;;;;;;10.47;9.23;;;7.60;92.60;;;;;;5027635;28;20246;-77
2022/03/08 08:54:59;;;;;;;11.57;10.57;;;7.80;93.10;;;;;;5027637;28;20203;-78
2022/03/08 08:57:26;;;;;;;11.23;10.23;;;7.60;92.80;;;;;;5023653;28;20192;-77
2022/03/08 08:59:53;;;;;;;11.10;10.10;;;7.80;92.80;;;;;;5009412;28;20719;-77
2022/03/08 09:02:19;;;;;;;11.80;10.60;;;7.90;92.80;;;;;;5024498;28;20266;-77
2022/03/08 09:04:46;;;;;;;12.27;11.33;;;8.20;92.60;;;;;;5027244;28;20222;-77
2022/03/08 09:07:13;;;;;;;12.63;11.53;;;8.10;92.50;;;;;;5012566;28;20261;-76
2022/03/08 09:09:40;;;;;;;10.47;9.47;;;8.00;92.70;;;;;;5027419;28;20222;-76
2022/03/08 09:12:09;;;;;;;8.83;7.93;;;8.20;92.70;;;;;;5027385;28;20203;-77
2022/03/08 09:14:35;;;;;;;9.67;7.17;;;8.40;92.30;;;;;;5027232;28;20683;-78
2022/03/08 09:17:03;;;;;;;9.37;7.87;;;8.80;92.20;;;;;;5027410;28;20205;-78
2022/03/08 09:19:30;;;;;;;7.80;6.30;;;8.70;91.90;;;;;;5009705;28;20234;-77
2022/03/08 09:21:57;;;;;;;7.50;6.67;;;8.90;91.80;;;;;;5024153;28;20267;-77
2022/03/08 09:24:24;;;;;;;10.37;9.37;;;9.10;91.40;;;;;;5028572;28;20568;-77
2022/03/08 09:26:51;;;;;;;10.47;9.57;;;9.30;91.40;;;;;;5009331;28;20680;-77
2022/03/08 09:29:19;;;;;;;11.93;9.90;;;9.00;91.30;;;;;;5007258;28;20228;-76
2022/03/08 09:31:46;;;;;;;11.70;10.50;;;8.60;90.90;;;;;;5026533;28;20215;-77
2022/03/08 09:34:13;;;;;;;6.93;5.80;;;8.70;91.40;;;;;;5007689;28;20215;-76
2022/03/08 09:36:40;;;;;;;8.87;7.97;;;8.90;91.30;;;;;;5029688;28;20246;-77
2022/03/08 09:39:07;;;;;;;7.40;5.80;;;9.00;90.90;;;;;;5027778;28;20716;-79
2022/03/08 09:41:34;;;;;;;7.40;5.33;;;9.20;91.20;;;;;;5024176;28;20259;-79
2022/03/08 09:44:01;;;;;;;7.27;5.70;;;9.00;90.90;;;;;;5027978;28;20640;-77
2022/03/08 09:46:29;;;;;;;7.30;5.50;;;8.90;91.10;;;;;;5005323;28;20216;-77
2022/03/08 09:48:57;;;;;;;9.13;6.30;;;9.00;90.90;;;;;;5025435;28;20220;-77
2022/03/08 09:51:24;;;;;;;10.43;9.43;;;8.80;90.60;;;;;;5031995;28;20214;-77
2022/03/08 09:53:54;;;;;;;11.87;10.87;;;8.60;90.30;;;;;;5030011;28;20202;-77
2022/03/08 09:56:21;;;;;;;11.43;9.23;;;8.60;90.40;;;;;;5027462;28;20196;-78
2022/03/08 09:58:48;;;;;;;9.57;8.40;;;8.80;90.70;;;;;;5027865;28;20209;-77
2022/03/08 10:01:15;;;;;;;8.10;6.67;;;8.80;90.60;;;;;;5026195;28;20207;-78
2022/03/08 10:03:46;;;;;;;8.67;6.93;;;8.90;90.80;;;;;;5025859;28;20192;-77
2022/03/08 10:06:13;;;;;;;11.10;10.20;;;8.70;90.20;;;;;;5024095;28;20197;-77
2022/03/08 10:08:40;;;;;;;10.17;9.27;;;8.60;90.40;;;;;;5027419;28;20573;-77
2022/03/08 10:11:09;;;;;;;10.37;9.47;;;8.50;91.00;;;;;;5011978;28;20200;-78
2022/03/08 10:13:41;;;;;;;10.47;9.30;;;8.40;90.60;;;;;;5027026;28;20203;-76
2022/03/08 10:16:11;;;;;;;10.50;9.50;;;8.30;91.00;;;;;;5026967;28;20230;-77
2022/03/08 10:18:41;;;;;;;10.60;9.27;;;8.20;90.60;;;;;;5019351;28;20315;-77
2022/03/08 10:21:40;;;;;;;10.17;9.27;;;8.20;90.90;;;;;;5027404;28;20597;-76
2022/03/08 10:24:15;;;;;;;11.20;10.10;;;8.40;91.00;;;;;;5018722;28;20217;-77
2022/03/08 10:26:48;;;;;;;11.63;9.50;;;8.30;90.80;;;;;;5029759;28;20199;-78
2022/03/08 10:29:21;;;;;;;10.77;9.67;;;8.30;91.10;;;;;;5028168;28;20220;-78
2022/03/08 10:31:49;;;;;;;10.70;9.47;;;8.30;91.10;;;;;;5006842;28;20228;-77
2022/03/08 10:34:17;;;;;;;10.73;9.63;;;8.20;90.40;;;;;;5004956;28;20692;-78
2022/03/08 10:37:02;;;;;;;10.50;9.47;;;8.10;90.20;;;;;;5011760;28;20215;-76
2022/03/08 10:39:30;;;;;;;9.77;8.77;;;7.80;90.10;;;;;;5015336;28;20231;-77
2022/03/08 10:41:59;;;;;;;11.40;10.20;;;7.70;90.40;;;;;;4998099;28;20247;-77
2022/03/08 10:44:37;;;;;;;11.23;10.03;;;7.70;90.50;;;;;;5015291;28;20249;-76
2022/03/08 10:47:06;;;;;;;10.17;9.20;;;7.60;90.20;;;;;;5008337;28;20199;-77
2022/03/08 10:49:34;;;;;;;9.47;8.57;;;7.70;90.20;;;;;;5015383;28;20230;-79
2022/03/08 10:52:03;;;;;;;10.63;9.53;;;7.80;90.90;;;;;;5015570;28;20669;-77
2022/03/08 10:54:32;;;;;;;11.13;9.87;;;7.60;90.90;;;;;;5015709;28;20653;-77
2022/03/08 10:56:59;;;;;;;10.30;9.30;;;7.60;91.00;;;;;;5023509;28;20204;-77
2022/03/08 10:59:26;;;;;;;10.63;9.53;;;7.70;90.90;;;;;;5026129;28;20273;-77
2022/03/08 11:01:53;;;;;;;10.80;9.63;;;7.60;90.70;;;;;;5025591;28;20219;-78
2022/03/08 11:04:21;;;;;;;11.27;10.13;;;7.60;90.80;;;;;;5012109;28;20235;-76
2022/03/08 11:06:52;;;;;;;10.50;9.60;;;7.50;90.50;;;;;;5027847;28;20694;-77
2022/03/08 11:09:21;;;;;;;10.60;9.50;;;7.60;90.70;;;;;;5029447;28;20212;-78
2022/03/08 11:11:49;;;;;;;9.93;9.03;;;7.60;90.50;;;;;;5024736;28;20192;-78
2022/03/08 11:14:16;;;;;;;11.50;10.43;;;7.60;90.50;;;;;;5036270;28;20204;-77
2022/03/08 11:16:46;;;;;;;11.03;9.93;;;7.50;90.50;;;;;;5026685;28;20202;-78
2022/03/08 11:19:14;;;;;;;11.23;10.13;;;7.60;90.80;;;;;;5032142;28;20704;-77
2022/03/08 11:21:41;;;;;;;11.50;10.30;;;7.50;90.70;;;;;;5029785;28;20214;-77
2022/03/08 11:24:09;;;;;;;12.00;10.00;;;7.40;91.00;;;;;;5012584;28;20204;-77
2022/03/08 11:26:36;;;;;;;16.23;10.60;;;7.60;91.10;;;;;;5028332;28;20195;-77
2022/03/08 11:29:05;;;;;;;11.23;10.13;;;7.60;90.50;;;;;;5029793;28;20274;-78
2022/03/08 11:31:35;;;;;;;11.37;10.27;;;7.60;90.50;;;;;;5033388;28;20691;-76
2022/03/08 11:34:09;;;;;;;11.20;10.13;;;7.50;90.40;;;;;;5025844;28;20197;-76
2022/03/08 11:36:39;;;;;;;10.40;9.30;;;7.30;90.50;;;;;;5025616;28;20482;-78
2022/03/08 11:39:21;;;;;;;11.23;9.47;;;7.40;91.20;;;;;;5031645;28;20218;-77
2022/03/08 11:41:51;;;;;;;10.43;9.43;;;7.40;90.90;;;;;;5030109;28;20214;-76
2022/03/08 11:44:27;;;;;;;10.23;9.23;;;7.40;90.70;;;;;;5027923;28;20250;-77
2022/03/08 11:47:07;;;;;;;10.70;9.60;;;7.40;90.90;;;;;;5014686;28;20261;-77
2022/03/08 11:49:51;;;;;;;10.30;9.30;;;7.50;90.80;;;;;;5028570;28;20238;-78
2022/03/08 11:52:20;;;;;;;11.03;9.60;;;7.50;90.30;;;;;;5028130;28;20192;-76
2022/03/08 11:54:56;;;;;;;10.70;9.20;;;7.40;90.20;;;;;;5013018;28;20253;-76
2022/03/08 11:57:51;;;;;;;9.50;8.63;;;7.40;90.30;;;;;;5033214;28;20848;-77
2022/03/08 12:00:22;;;;;;;10.43;9.43;;;7.50;88.20;;;;;;5023477;28;20223;-77
2022/03/08 12:02:51;;;;;;;9.10;8.27;;;7.50;86.90;;;;;;5027640;28;20212;-78
2022/03/08 12:06:01;;;;;;;11.53;8.90;;;7.40;87.10;;;;;;5013086;28;20210;-78
2022/03/08 12:09:10;;;;;;;9.80;8.80;;;7.50;86.80;;;;;;4999870;28;20579;-77
2022/03/08 12:11:45;;;;;;;11.00;8.97;;;7.50;87.20;;;;;;5017521;28;20203;-79
2022/03/08 12:14:14;;;;;;;10.73;9.20;;;7.60;87.70;;;;;;5017844;28;20204;-77
2022/03/08 12:16:44;;;;;;;9.70;8.80;;;7.60;88.40;;;;;;5016697;28;20299;-77
2022/03/08 12:19:13;;;;;;;10.00;9.10;;;7.60;89.10;;;;;;5009308;28;20231;-78
2022/03/08 12:21:45;;;;;;;12.70;9.27;;;7.60;88.60;;;;;;5018059;28;20630;-78
2022/03/08 12:24:16;;;;;;;9.60;8.63;;;7.50;87.50;;;;;;5018595;28;20207;-76
2022/03/08 12:26:54;;;;;;;9.40;8.50;;;7.50;88.00;;;;;;5016484;28;20222;-77
2022/03/08 12:29:23;;;;;;;9.77;8.87;;;7.60;87.60;;;;;;5006972;28;20226;-77
2022/03/08 12:32:21;;;;;;;9.93;8.97;;;7.60;87.80;;;;;;5024171;28;20207;-77
2022/03/08 12:34:51;;;;;;;9.53;8.63;;;7.70;88.20;;;;;;5025143;28;20211;-77
2022/03/08 12:37:20;;;;;;;10.17;9.27;;;7.70;86.90;;;;;;5013186;28;20583;-76
2022/03/08 12:39:49;;;;;;;10.43;9.33;;;7.80;87.80;;;;;;5030112;28;20219;-76
2022/03/08 12:42:38;;;;;;;10.93;9.93;;;7.70;87.90;;;;;;5026419;28;20215;-78